createdAt,value
2019-05-02T00:02:00.528Z,101326.89
2019-05-02T00:04:27.674Z,101322.26
2019-05-02T00:07:08.068Z,101328.30
2019-05-02T00:09:35.699Z,101329.61
2019-05-02T00:12:05.130Z,101321.77
2019-05-02T00:14:32.576Z,101323.08
2019-05-02T00:16:59.509Z,101319.34
2019-05-02T00:19:26.546Z,101318.37
2019-05-02T00:21:53.719Z,101318.86
2019-05-02T00:24:20.755Z,101316.81
2019-05-02T00:26:47.732Z,101314.45
2019-05-02T00:29:18.942Z,101313.97
2019-05-02T00:31:46.944Z,101308.59
2019-05-02T00:34:14.435Z,101314.22
2019-05-02T00:36:41.582Z,101311.97
2019-05-02T00:39:09.624Z,101312.73
2019-05-02T00:41:38.470Z,101312.09
2019-05-02T00:44:11.114Z,101305.56
2019-05-02T00:46:36.179Z,101306.38
2019-05-02T00:49:03.290Z,101307.53
2019-05-02T00:51:32.110Z,101299.62
2019-05-02T00:53:59.040Z,101306.71
2019-05-02T00:56:27.827Z,101300.27
2019-05-02T00:58:54.869Z,101292.03
2019-05-02T01:01:40.271Z,101291.95
2019-05-02T01:04:29.203Z,101292.84
2019-05-02T01:06:56.230Z,101293.25
2019-05-02T01:09:23.167Z,101290.56
2019-05-02T01:11:50.110Z,101283.89
2019-05-02T01:14:17.105Z,101286.34
2019-05-02T01:16:44.144Z,101282.61
2019-05-02T01:19:12.208Z,101285.39
2019-05-02T01:21:40.121Z,101286.69
2019-05-02T01:24:07.318Z,101285.05
2019-05-02T01:27:14.456Z,101282.45
2019-05-02T01:29:46.713Z,101278.94
2019-05-02T01:32:25.142Z,101277.64
2019-05-02T01:35:10.056Z,101273.98
2019-05-02T01:37:56.136Z,101268.68
2019-05-02T01:40:23.287Z,101274.15
2019-05-02T01:42:51.042Z,101270.33
2019-05-02T01:45:18.155Z,101272.70
2019-05-02T01:47:45.215Z,101277.39
2019-05-02T01:50:12.608Z,101281.02
2019-05-02T01:52:41.189Z,101277.80
2019-05-02T01:55:08.435Z,101273.41
2019-05-02T01:57:35.414Z,101272.02
2019-05-02T02:00:09.416Z,101274.47
2019-05-02T02:02:34.102Z,101271.05
2019-05-02T02:05:01.157Z,101269.28
2019-05-02T02:07:28.250Z,101262.66
2019-05-02T02:09:56.384Z,101269.25
2019-05-02T02:12:30.535Z,101257.15
2019-05-02T02:14:57.593Z,101257.13
2019-05-02T02:17:24.523Z,101252.70
2019-05-02T02:19:55.747Z,101245.66
2019-05-02T02:22:42.413Z,101252.00
2019-05-02T02:25:32.344Z,101253.45
2019-05-02T02:28:01.731Z,101247.08
2019-05-02T02:30:28.766Z,101245.77
2019-05-02T02:33:00.739Z,101236.00
2019-05-02T02:35:24.640Z,101246.44
2019-05-02T02:37:53.319Z,101242.86
2019-05-02T02:40:20.416Z,101251.84
2019-05-02T02:42:47.388Z,101242.89
2019-05-02T02:45:58.051Z,101238.49
2019-05-02T02:48:24.225Z,101244.08
2019-05-02T02:50:51.213Z,101242.08
2019-05-02T02:53:29.117Z,101238.91
2019-05-02T02:56:02.079Z,101238.42
2019-05-02T02:58:25.338Z,101242.34
2019-05-02T03:01:12.347Z,101243.64
2019-05-02T03:03:39.519Z,101234.92
2019-05-02T03:06:28.457Z,101235.25
2019-05-02T03:08:55.389Z,101228.65
2019-05-02T03:11:25.569Z,101232.08
2019-05-02T03:14:09.638Z,101236.81
2019-05-02T03:16:46.059Z,101234.61
2019-05-02T03:19:05.861Z,101229.16
2019-05-02T03:21:32.938Z,101230.30
2019-05-02T03:24:03.491Z,101228.03
2019-05-02T03:26:28.758Z,101224.11
2019-05-02T03:28:58.955Z,101222.41
2019-05-02T03:31:30.260Z,101218.62
2019-05-02T03:33:59.723Z,101214.56
2019-05-02T03:36:30.578Z,101210.57
2019-05-02T03:38:52.096Z,101208.62
2019-05-02T03:41:20.817Z,101204.88
2019-05-02T03:43:48.641Z,101203.42
2019-05-02T03:46:20.607Z,101198.70
2019-05-02T03:48:45.614Z,101196.98
2019-05-02T03:51:21.298Z,101202.94
2019-05-02T03:53:41.746Z,101201.55
2019-05-02T03:56:11.370Z,101199.36
2019-05-02T03:58:37.658Z,101199.69
2019-05-02T04:01:04.594Z,101201.64
2019-05-02T04:03:34.222Z,101198.14
2019-05-02T04:06:01.041Z,101193.83
2019-05-02T04:08:28.614Z,101195.95
2019-05-02T04:11:24.453Z,101190.73
2019-05-02T04:13:53.001Z,101189.35
2019-05-02T04:16:21.414Z,101194.98
2019-05-02T04:18:55.088Z,101189.29
2019-05-02T04:21:24.413Z,101196.95
2019-05-02T04:23:48.116Z,101194.75
2019-05-02T04:26:16.914Z,101202.81
2019-05-02T04:28:45.368Z,101199.22
2019-05-02T04:31:12.931Z,101199.29
2019-05-02T04:33:40.608Z,101196.91
2019-05-02T04:36:14.826Z,101200.22
2019-05-02T04:38:44.533Z,101202.51
2019-05-02T04:41:05.398Z,101193.09
2019-05-02T04:43:40.576Z,101197.13
2019-05-02T04:46:09.255Z,101196.28
2019-05-02T04:48:34.818Z,101190.69
2019-05-02T04:51:10.154Z,101194.23
2019-05-02T04:53:36.883Z,101194.19
2019-05-02T04:56:04.408Z,101188.12
2019-05-02T04:58:34.790Z,101191.66
2019-05-02T05:01:01.795Z,101189.89
2019-05-02T05:03:28.519Z,101182.06
2019-05-02T05:05:59.376Z,101187.30
2019-05-02T05:08:26.343Z,101185.52
2019-05-02T05:10:53.245Z,101179.75
2019-05-02T05:13:23.297Z,101187.22
2019-05-02T05:15:51.896Z,101181.44
2019-05-02T05:18:20.828Z,101186.59
2019-05-02T05:20:54.262Z,101183.41
2019-05-02T05:23:59.307Z,101184.72
2019-05-02T05:26:21.924Z,101186.97
2019-05-02T05:28:49.965Z,101177.86
2019-05-02T05:31:23.962Z,101186.92
2019-05-02T05:33:47.777Z,101184.56
2019-05-02T05:36:14.599Z,101188.88
2019-05-02T05:38:41.586Z,101187.41
2019-05-02T05:41:12.831Z,101195.16
2019-05-02T05:43:37.963Z,101190.72
2019-05-02T05:46:10.740Z,101191.52
2019-05-02T05:48:37.218Z,101194.72
2019-05-02T05:51:03.102Z,101186.99
2019-05-02T05:53:32.128Z,101188.84
2019-05-02T05:56:09.204Z,101192.71
2019-05-02T05:58:39.968Z,101186.98
2019-05-02T06:01:09.344Z,101185.22
2019-05-02T06:03:38.871Z,101175.02
2019-05-02T06:06:03.042Z,101177.20
2019-05-02T06:08:30.023Z,101181.00
2019-05-02T06:10:56.985Z,101179.59
2019-05-02T06:13:25.154Z,101180.30
2019-05-02T06:16:02.107Z,101184.50
2019-05-02T06:18:28.440Z,101176.90
2019-05-02T06:20:58.359Z,101177.41
2019-05-02T06:23:24.726Z,101176.05
2019-05-02T06:25:51.665Z,101172.79
2019-05-02T06:28:18.661Z,101171.16
2019-05-02T06:30:45.611Z,101169.73
2019-05-02T06:33:12.545Z,101167.03
2019-05-02T06:35:39.511Z,101160.09
2019-05-02T06:38:06.438Z,101161.98
2019-05-02T06:40:33.380Z,101162.92
2019-05-02T06:43:04.298Z,101159.88
2019-05-02T06:45:32.200Z,101160.09
2019-05-02T06:48:01.000Z,101161.98
2019-05-02T06:50:28.099Z,101162.08
2019-05-02T06:52:55.035Z,101162.18
2019-05-02T06:55:21.990Z,101161.44
2019-05-02T06:57:51.618Z,101156.98
2019-05-02T07:00:18.075Z,101162.58
2019-05-02T07:02:45.001Z,101162.81
2019-05-02T07:05:12.450Z,101155.45
2019-05-02T07:07:39.391Z,101154.69
2019-05-02T07:10:07.468Z,101158.15
2019-05-02T07:12:34.664Z,101155.28
2019-05-02T07:15:03.845Z,101163.86
2019-05-02T07:17:41.358Z,101166.53
2019-05-02T07:27:20.971Z,101161.80
2019-05-02T07:29:52.127Z,101153.62
2019-05-02T07:32:24.078Z,101157.27
2019-05-02T07:34:48.139Z,101157.39
2019-05-02T07:37:15.408Z,101163.16
2019-05-02T07:39:46.215Z,101159.22
2019-05-02T07:42:13.233Z,101157.12
2019-05-02T07:44:40.239Z,101152.98
2019-05-02T07:47:07.185Z,101152.09
2019-05-02T07:49:34.368Z,101156.82
2019-05-02T07:52:01.752Z,101161.27
2019-05-02T07:54:28.803Z,101155.69
2019-05-02T07:56:55.763Z,101155.98
2019-05-02T07:59:23.436Z,101151.42
2019-05-02T08:01:51.009Z,101148.56
2019-05-02T08:04:17.951Z,101150.74
2019-05-02T08:06:46.382Z,101157.13
2019-05-02T08:09:13.483Z,101157.13
2019-05-02T08:11:40.532Z,101149.08
2019-05-02T08:14:07.508Z,101148.79
2019-05-02T08:16:34.590Z,101149.01
2019-05-02T08:19:05.542Z,101145.30
2019-05-02T08:21:33.957Z,101147.34
2019-05-02T08:24:02.197Z,101142.77
2019-05-02T08:26:47.719Z,101134.69
2019-05-02T08:29:15.238Z,101135.33
2019-05-02T08:31:42.214Z,101128.87
2019-05-02T08:34:14.690Z,101130.87
2019-05-02T08:36:38.116Z,101123.95
2019-05-02T08:39:05.596Z,101124.41
2019-05-02T08:41:32.674Z,101127.77
2019-05-02T08:43:59.613Z,101130.05
2019-05-02T08:46:26.776Z,101120.48
2019-05-02T08:48:53.974Z,101127.70
2019-05-02T08:51:20.890Z,101122.83
2019-05-02T08:53:52.112Z,101118.14
2019-05-02T08:56:21.347Z,101121.31
2019-05-02T08:58:49.820Z,101117.17
2019-05-02T09:01:16.244Z,101116.69
2019-05-02T09:03:55.062Z,101108.00
2019-05-02T09:06:12.288Z,101106.38
2019-05-02T09:08:39.235Z,101102.08
2019-05-02T09:11:06.334Z,101102.14
2019-05-02T09:13:33.280Z,101106.37
2019-05-02T09:16:02.693Z,101101.17
2019-05-02T09:18:35.068Z,101102.64
2019-05-02T09:20:58.018Z,101104.33
2019-05-02T09:23:27.455Z,101101.34
2019-05-02T09:25:53.842Z,101096.88
2019-05-02T09:28:22.454Z,101095.95
2019-05-02T09:30:49.652Z,101093.83
2019-05-02T09:33:16.738Z,101092.27
2019-05-02T09:35:43.673Z,101091.47
2019-05-02T09:38:12.486Z,101086.26
2019-05-02T09:40:42.633Z,101077.45
2019-05-02T09:43:09.643Z,101075.43
2019-05-02T09:45:55.156Z,101077.83
2019-05-02T09:48:26.656Z,101068.34
2019-05-02T09:50:52.848Z,101064.19
2019-05-02T09:53:24.219Z,101059.45
2019-05-02T09:55:57.163Z,101055.25
2019-05-02T09:58:21.891Z,101056.45
2019-05-02T10:00:56.426Z,101049.95
2019-05-02T10:03:25.827Z,101045.24
2019-05-02T10:05:52.779Z,101050.75
2019-05-02T10:08:19.854Z,101044.73
2019-05-02T10:10:46.861Z,101039.38
2019-05-02T10:13:13.849Z,101039.10
2019-05-02T10:15:42.119Z,101035.67
2019-05-02T10:18:12.038Z,101037.02
2019-05-02T10:20:38.358Z,101034.83
2019-05-02T10:23:05.331Z,101029.98
2019-05-02T10:25:38.443Z,101023.87
2019-05-02T10:28:02.154Z,101013.80
2019-05-02T10:30:35.608Z,101012.09
2019-05-02T10:33:07.292Z,101011.25
2019-05-02T10:35:40.814Z,101003.71
2019-05-02T10:38:09.442Z,101005.12
2019-05-02T10:40:35.844Z,101001.31
2019-05-02T10:43:04.496Z,100998.73
2019-05-02T10:45:32.124Z,100993.44
2019-05-02T10:47:59.221Z,100993.02
2019-05-02T10:50:32.753Z,100988.63
2019-05-02T10:53:03.577Z,100986.46
2019-05-02T10:55:28.393Z,100985.14
2019-05-02T10:57:55.322Z,100980.73
2019-05-02T11:00:25.916Z,100978.12
2019-05-02T11:03:18.606Z,100968.83
2019-05-02T11:05:49.042Z,100968.42
2019-05-02T11:08:16.164Z,100968.39
2019-05-02T11:10:44.124Z,100964.84
2019-05-02T11:13:16.990Z,100959.53
2019-05-02T11:16:03.770Z,100960.45
2019-05-02T11:18:42.383Z,100956.47
2019-05-02T11:21:06.782Z,100959.56
2019-05-02T11:23:32.858Z,100959.16
2019-05-02T11:26:01.747Z,100956.47
2019-05-02T11:28:28.835Z,100948.88
2019-05-02T11:31:01.509Z,100953.27
2019-05-02T11:33:25.951Z,100944.69
2019-05-02T11:35:53.565Z,100948.61
2019-05-02T11:38:36.361Z,100939.69
2019-05-02T11:40:49.628Z,100931.02
2019-05-02T11:43:16.623Z,100924.80
2019-05-02T11:45:45.377Z,100918.33
2019-05-02T11:48:14.017Z,100917.60
2019-05-02T11:50:42.258Z,100909.27
2019-05-02T11:53:23.203Z,100908.52
2019-05-02T11:55:41.384Z,100907.89
2019-05-02T11:58:10.625Z,100911.56
2019-05-02T12:00:39.687Z,100906.66
2019-05-02T12:03:16.021Z,100902.61
2019-05-02T12:05:43.511Z,100904.25
2019-05-02T12:08:12.139Z,100893.24
2019-05-02T12:10:39.351Z,100897.37
2019-05-02T12:13:06.729Z,100888.09
2019-05-02T12:15:35.170Z,100892.00
2019-05-02T12:18:02.551Z,100885.36
2019-05-02T12:20:35.291Z,100890.36
2019-05-02T12:22:58.614Z,100889.13
2019-05-02T12:25:25.689Z,100886.13
2019-05-02T12:28:13.029Z,100891.61
2019-05-02T12:30:41.890Z,100887.27
2019-05-02T12:33:12.247Z,100891.37
2019-05-02T12:35:39.514Z,100894.44
2019-05-02T12:38:06.490Z,100899.27
2019-05-02T12:40:33.453Z,100901.44
2019-05-02T12:43:02.352Z,100899.89
2019-05-02T12:45:29.281Z,100903.37
2019-05-02T12:47:56.250Z,100913.31
2019-05-02T12:50:23.467Z,100918.55
2019-05-02T12:52:52.144Z,100926.14
2019-05-02T12:55:19.443Z,100929.33
2019-05-02T12:57:46.427Z,100931.59
2019-05-02T13:00:15.176Z,100934.07
2019-05-02T13:02:52.514Z,100935.45
2019-05-02T13:05:19.678Z,100934.91
2019-05-02T13:07:50.381Z,100935.73
2019-05-02T13:10:25.262Z,100931.32
2019-05-02T13:12:53.199Z,100924.19
2019-05-02T13:15:22.033Z,100919.80
2019-05-02T13:17:49.369Z,100915.91
2019-05-02T13:20:18.235Z,100916.84
2019-05-02T13:23:03.818Z,100917.75
2019-05-02T13:25:32.908Z,100920.88
2019-05-02T13:28:02.017Z,100919.92
2019-05-02T13:30:42.737Z,100914.23
2019-05-02T13:33:08.206Z,100912.45
2019-05-02T13:35:47.895Z,100908.50
2019-05-02T13:38:17.965Z,100905.92
2019-05-02T13:40:45.062Z,100905.61
2019-05-02T13:43:12.748Z,100904.91
2019-05-02T13:46:12.676Z,100901.55
2019-05-02T13:48:39.805Z,100893.41
2019-05-02T13:51:06.765Z,100886.58
2019-05-02T13:53:36.000Z,100875.39
2019-05-02T13:56:22.108Z,100872.11
2019-05-02T13:58:49.081Z,100865.64
2019-05-02T14:01:16.802Z,100863.93
2019-05-02T14:03:43.822Z,100855.14
2019-05-02T14:06:12.572Z,100850.32
2019-05-02T14:08:53.259Z,100838.86
2019-05-02T14:11:41.028Z,100835.83
2019-05-02T14:17:39.220Z,100831.50
2019-05-02T14:20:10.431Z,100826.98
2019-05-02T14:22:35.260Z,100823.02
2019-05-02T14:25:02.336Z,100822.69
2019-05-02T14:27:29.309Z,100816.97
2019-05-02T14:29:56.299Z,100816.09
2019-05-02T14:32:26.544Z,100816.52
2019-05-02T14:35:09.227Z,100818.69
2019-05-02T14:37:36.292Z,100817.66
2019-05-02T14:40:11.772Z,100814.47
2019-05-02T14:42:38.748Z,100813.98
2019-05-02T14:45:27.279Z,100820.09
2019-05-02T14:47:42.437Z,100824.38
2019-05-02T14:50:22.788Z,100849.30
2019-05-02T14:52:42.193Z,100849.02
2019-05-02T14:55:09.124Z,100857.94
2019-05-02T14:57:36.056Z,100857.52
2019-05-02T15:00:04.187Z,100866.50
2019-05-02T15:02:47.152Z,100863.39
2019-05-02T15:05:12.830Z,100865.23
2019-05-02T15:07:39.822Z,100866.27
2019-05-02T15:10:07.144Z,100863.53
2019-05-02T15:12:34.214Z,100867.03
2019-05-02T15:15:02.542Z,100870.38
2019-05-02T15:17:33.691Z,100870.38
2019-05-02T15:19:59.269Z,100873.27
2019-05-02T15:22:27.708Z,100872.70
2019-05-02T15:24:56.535Z,100882.80
2019-05-02T15:27:23.813Z,100882.23
2019-05-02T15:30:06.564Z,100883.90
2019-05-02T15:33:04.386Z,100876.45
2019-05-02T15:36:03.252Z,100887.91
2019-05-02T15:38:29.035Z,100890.09
2019-05-02T15:40:59.131Z,100882.03
2019-05-02T15:43:24.821Z,100880.28
2019-05-02T15:45:52.660Z,100875.93
2019-05-02T15:48:26.077Z,100885.98
2019-05-02T15:50:52.998Z,100884.24
2019-05-02T15:53:48.570Z,100882.15
2019-05-02T15:56:19.867Z,100878.19
2019-05-02T15:58:44.059Z,100883.15
2019-05-02T16:01:29.478Z,100881.05
2019-05-02T16:04:01.704Z,100878.79
2019-05-02T16:06:31.696Z,100880.94
2019-05-02T16:08:57.803Z,100880.13
2019-05-02T16:11:24.741Z,100874.08
2019-05-02T16:13:55.675Z,100874.61
2019-05-02T16:16:21.897Z,100871.65
2019-05-02T16:18:49.266Z,100877.38
2019-05-02T16:21:42.513Z,100873.53
2019-05-02T16:24:35.226Z,100873.66
2019-05-02T16:27:02.245Z,100876.83
2019-05-02T16:30:11.440Z,100874.49
2019-05-02T16:32:46.036Z,100871.83
2019-05-02T16:35:17.487Z,100877.05
2019-05-02T16:37:46.769Z,100880.08
2019-05-02T16:40:14.326Z,100871.80
2019-05-02T16:42:41.934Z,100871.91
2019-05-02T16:45:11.653Z,100866.77
2019-05-02T16:47:38.404Z,100869.89
2019-05-02T16:50:06.901Z,100867.77
2019-05-02T16:52:38.106Z,100869.16
2019-05-02T16:55:04.390Z,100870.83
2019-05-02T16:57:34.837Z,100861.47
2019-05-02T17:00:05.941Z,100866.72
2019-05-02T17:02:29.134Z,100868.45
2019-05-02T17:05:00.228Z,100873.70
2019-05-02T17:07:41.080Z,100872.74
2019-05-02T17:10:18.665Z,100866.53
2019-05-02T17:12:47.329Z,100867.69
2019-05-02T17:15:35.293Z,100865.41
2019-05-02T17:18:12.608Z,100872.00
2019-05-02T17:20:34.259Z,100873.67
2019-05-02T17:23:07.897Z,100869.20
2019-05-02T17:25:34.854Z,100873.14
2019-05-02T17:28:07.024Z,100873.08
2019-05-02T17:30:38.551Z,100862.91
2019-05-02T17:33:01.749Z,100868.19
2019-05-02T17:35:28.885Z,100863.83
2019-05-02T17:37:55.884Z,100866.52
2019-05-02T17:40:26.096Z,100864.04
2019-05-02T17:42:52.520Z,100868.96
2019-05-02T17:45:23.876Z,100872.08
2019-05-02T17:47:50.669Z,100873.43
2019-05-02T17:50:42.246Z,100883.17
2019-05-02T17:53:09.298Z,100872.67
2019-05-02T17:55:40.248Z,100880.16
2019-05-02T17:58:12.537Z,100874.06
2019-05-02T18:00:39.155Z,100881.04
2019-05-02T18:03:06.126Z,100881.91
2019-05-02T18:05:35.661Z,100878.41
2019-05-02T18:08:06.102Z,100877.97
2019-05-02T18:10:32.314Z,100877.97
2019-05-02T18:13:00.002Z,100873.12
2019-05-02T18:15:29.869Z,100880.63
2019-05-02T18:17:59.884Z,100886.80
2019-05-02T18:20:25.467Z,100879.77
2019-05-02T18:22:52.613Z,100876.70
2019-05-02T18:25:21.680Z,100878.45
2019-05-02T18:27:48.829Z,100881.12
2019-05-02T18:30:24.978Z,100883.76
2019-05-02T18:32:48.142Z,100882.89
2019-05-02T18:35:15.199Z,100893.86
2019-05-02T18:37:46.639Z,100889.82
2019-05-02T18:40:11.969Z,100892.84
2019-05-02T18:42:39.103Z,100892.76
2019-05-02T18:45:08.869Z,100898.38
2019-05-02T18:47:35.943Z,100899.25
2019-05-02T18:50:06.149Z,100905.78
2019-05-02T18:52:42.908Z,100902.98
2019-05-02T18:55:05.826Z,100908.17
2019-05-02T18:57:32.905Z,100908.03
2019-05-02T19:00:01.864Z,100921.95
2019-05-02T19:02:32.767Z,100919.14
2019-05-02T19:04:57.918Z,100921.56
2019-05-02T19:07:32.824Z,100926.16
2019-05-02T19:09:54.053Z,100931.14
2019-05-02T19:12:24.002Z,100929.63
2019-05-02T19:14:50.029Z,100934.20
2019-05-02T19:17:17.031Z,100940.12
2019-05-02T19:19:56.516Z,100944.39
2019-05-02T19:22:24.712Z,100948.48
2019-05-02T19:24:52.404Z,100953.47
2019-05-02T19:27:48.357Z,100958.63
2019-05-02T19:30:34.637Z,100958.47
2019-05-02T19:33:06.087Z,100962.19
2019-05-02T19:35:32.641Z,100964.20
2019-05-02T19:38:02.578Z,100969.81
2019-05-02T19:40:31.656Z,100980.10
2019-05-02T19:43:05.942Z,100982.89
2019-05-02T19:45:27.999Z,100991.34
2019-05-02T19:47:57.664Z,100989.01
2019-05-02T19:50:41.582Z,100990.13
2019-05-02T19:53:15.155Z,100993.39
2019-05-02T19:55:36.245Z,100997.07
2019-05-02T19:58:06.494Z,100993.37
2019-05-02T20:00:36.571Z,101002.83
2019-05-02T20:03:03.914Z,101004.43
2019-05-02T20:05:32.255Z,101000.82
2019-05-02T20:07:59.635Z,100999.37
2019-05-02T20:10:26.579Z,101002.38
2019-05-02T20:12:53.570Z,100998.59
2019-05-02T20:15:25.427Z,101002.72
2019-05-02T20:17:53.470Z,100999.87
2019-05-02T20:20:40.476Z,101001.55
2019-05-02T20:23:15.482Z,101006.62
2019-05-02T20:25:39.122Z,101009.33
2019-05-02T20:28:06.072Z,101010.83
2019-05-02T20:30:34.365Z,101007.68
2019-05-02T20:33:05.361Z,101009.23
2019-05-02T20:35:32.492Z,101013.02
2019-05-02T20:38:01.564Z,101016.77
2019-05-02T20:40:31.923Z,101016.04
2019-05-02T20:42:59.579Z,101019.13
2019-05-02T20:45:35.390Z,101015.52
2019-05-02T20:48:02.445Z,101021.50
2019-05-02T20:50:31.688Z,101020.04
2019-05-02T20:52:58.476Z,101019.05
2019-05-02T20:55:25.700Z,101018.62
2019-05-02T20:57:54.520Z,101023.77
2019-05-02T21:00:23.800Z,101033.16
2019-05-02T21:02:51.894Z,101033.95
2019-05-02T21:05:21.188Z,101035.58
2019-05-02T21:08:05.182Z,101031.91
2019-05-02T21:10:36.104Z,101041.77
2019-05-02T21:13:04.061Z,101032.89
2019-05-02T21:15:32.336Z,101035.46
2019-05-02T21:17:59.497Z,101033.94
2019-05-02T21:20:26.696Z,101038.81
2019-05-02T21:22:53.737Z,101042.38
2019-05-02T21:25:23.003Z,101047.20
2019-05-02T21:27:49.727Z,101039.77
2019-05-02T21:30:23.385Z,101044.89
2019-05-02T21:32:52.064Z,101046.63
2019-05-02T21:35:22.379Z,101048.41
2019-05-02T21:37:49.405Z,101050.25
2019-05-02T21:40:16.609Z,101051.50
2019-05-02T21:42:43.682Z,101053.23
2019-05-02T21:45:12.996Z,101049.72
2019-05-02T21:47:39.724Z,101046.73
2019-05-02T21:50:27.179Z,101051.30
2019-05-02T21:53:19.824Z,101051.05
2019-05-02T21:56:12.267Z,101052.05
2019-05-02T21:58:42.766Z,101053.93
2019-05-02T22:01:12.992Z,101054.04
2019-05-02T22:03:40.585Z,101055.03
2019-05-02T22:06:08.072Z,101053.83
2019-05-02T22:08:35.100Z,101053.98
2019-05-02T22:11:02.531Z,101058.97
2019-05-02T22:13:31.468Z,101055.09
2019-05-02T22:15:58.692Z,101056.03
2019-05-02T22:19:08.073Z,101061.38
2019-05-02T22:21:35.266Z,101056.61
2019-05-02T22:24:11.248Z,101051.09
2019-05-02T22:26:32.725Z,101055.92
2019-05-02T22:29:01.937Z,101056.86
2019-05-02T22:31:29.022Z,101063.16
2019-05-02T22:33:56.329Z,101058.80
2019-05-02T22:36:23.455Z,101068.51
2019-05-02T22:38:55.675Z,101057.17
2019-05-02T22:41:22.679Z,101060.69
2019-05-02T22:43:49.690Z,101071.70
2019-05-02T22:46:36.645Z,101061.25
2019-05-02T22:49:04.119Z,101072.78
2019-05-02T22:51:32.018Z,101074.56
2019-05-02T22:53:59.120Z,101076.82
2019-05-02T22:56:26.160Z,101073.41
2019-05-02T22:58:53.439Z,101070.83
2019-05-02T23:01:21.623Z,101072.66
2019-05-02T23:03:48.739Z,101075.76
2019-05-02T23:06:15.733Z,101085.00
2019-05-02T23:08:43.510Z,101083.27
2019-05-02T23:11:10.630Z,101082.38
2019-05-02T23:13:37.645Z,101084.63
2019-05-02T23:16:04.701Z,101089.03
2019-05-02T23:18:32.014Z,101083.31
2019-05-02T23:21:06.468Z,101092.98
2019-05-02T23:23:33.461Z,101093.87
2019-05-02T23:26:16.591Z,101093.44
2019-05-02T23:28:46.295Z,101093.02
2019-05-02T23:31:14.053Z,101092.13
2019-05-02T23:34:01.821Z,101094.80
2019-05-02T23:36:29.917Z,101091.29
2019-05-02T23:38:57.205Z,101093.97
2019-05-02T23:41:28.851Z,101093.07
2019-05-02T23:43:55.965Z,101087.83
2019-05-02T23:46:22.924Z,101094.44
2019-05-02T23:48:50.076Z,101107.14
2019-05-02T23:51:17.193Z,101092.70
2019-05-02T23:54:02.556Z,101085.67
2019-05-02T23:56:29.542Z,101089.09
2019-05-02T23:58:56.520Z,101087.35
